Terminal Aerodrome Forecast
Issued by NWS

Home | Current Version | Previous Version | Text Only | Print | Product List | Glossary On
Versions: 1 2 3 4 5 6 7 8 9 10 11 12 13 14 15 16 17 18
000
FTAK31 PAJN 020941 AAC
TAFAJN
TAF AMD
PAJN 020941Z 0210/0306 VRB03KT P6SM VCFG FEW030 FEW045 BKN090
      TEMPO 0212/0216 3SM BR SCT005 SCT040 BKN090
     FM021600 VRB04KT P6SM FEW005 BKN035 OVC050
     FM021900 24005KT P6SM VCSH BKN035 OVC060=

USA.gov is the U.S. government's official web portal to all federal, state and local government web resources and services.